Time;durP1;ratioP1;P1;durP2;ratioP2;P2;SDS_P1;SDS_P2;PMS_P1;PMS_P2;Temp;Humidity;BMP_temperature;BMP_pressure;BME280_temperature;BME280_humidity;BME280_pressure;Samples;Min_cycle;Max_cycle;Signal;HPM_P1;HPM_P2
2021/10/06 00:02:21;;;;;;;13.73;2.53;;;;;;;;;;4976534;28;20037;-59
2021/10/06 00:04:51;;;;;;;5.65;2.40;;;;;;;;;;4959751;28;20027;-59
2021/10/06 00:07:16;;;;;;;7.13;2.63;;;;;;;;;;4976684;28;20046;-59
2021/10/06 00:09:47;;;;;;;8.43;3.45;;;;;;;;;;4965857;28;20056;-59
2021/10/06 00:12:14;;;;;;;15.82;4.10;;;;;;;;;;4951418;28;20116;-59
2021/10/06 00:14:45;;;;;;;22.35;4.25;;;;;;;;;;4979772;28;20036;-59
2021/10/06 00:17:10;;;;;;;16.25;4.70;;;;;;;;;;4963921;28;20038;-60
2021/10/06 00:19:38;;;;;;;10.02;4.13;;;;;;;;;;4963290;28;20026;-60
2021/10/06 00:22:06;;;;;;;6.32;4.03;;;;;;;;;;4978305;28;20035;-60
2021/10/06 00:24:31;;;;;;;8.40;4.35;;;;;;;;;;4966158;28;20114;-60
2021/10/06 00:26:59;;;;;;;18.27;5.07;;;;;;;;;;4949629;28;20026;-59
2021/10/06 00:29:27;;;;;;;16.60;4.97;;;;;;;;;;4965411;28;20046;-61
2021/10/06 00:31:52;;;;;;;11.40;4.63;;;;;;;;;;4972094;28;20083;-59
2021/10/06 00:34:21;;;;;;;12.30;4.25;;;;;;;;;;4960585;28;20806;-59
2021/10/06 00:36:49;;;;;;;12.90;4.30;;;;;;;;;;4961739;28;22002;-57
2021/10/06 00:39:17;;;;;;;11.52;4.75;;;;;;;;;;4963578;28;20493;-58
2021/10/06 00:41:43;;;;;;;9.40;4.07;;;;;;;;;;4979159;28;20030;-59
2021/10/06 00:44:20;;;;;;;12.02;4.05;;;;;;;;;;4963808;28;20034;-59
2021/10/06 00:46:48;;;;;;;13.55;4.53;;;;;;;;;;4947753;28;20125;-59
2021/10/06 00:49:14;;;;;;;9.57;4.53;;;;;;;;;;4964431;28;20157;-59
2021/10/06 00:51:43;;;;;;;10.45;3.50;;;;;;;;;;4977274;28;20395;-59
2021/10/06 00:54:08;;;;;;;9.23;3.67;;;;;;;;;;4961604;28;20034;-59
2021/10/06 00:56:34;;;;;;;12.77;3.92;;;;;;;;;;4962031;28;20042;-59
2021/10/06 00:59:02;;;;;;;9.88;4.43;;;;;;;;;;4961733;28;20018;-59
2021/10/06 01:01:30;;;;;;;17.75;3.92;;;;;;;;;;4978730;28;20035;-59
2021/10/06 01:03:55;;;;;;;14.52;3.58;;;;;;;;;;4964768;28;20386;-59
2021/10/06 01:06:24;;;;;;;7.13;3.92;;;;;;;;;;4960871;28;20041;-59
2021/10/06 01:08:51;;;;;;;13.32;3.17;;;;;;;;;;4977914;28;20041;-59
2021/10/06 01:11:18;;;;;;;8.50;3.75;;;;;;;;;;4963781;28;20492;-59
2021/10/06 01:13:43;;;;;;;9.95;3.65;;;;;;;;;;4962011;28;20045;-59
2021/10/06 01:16:10;;;;;;;6.10;3.22;;;;;;;;;;4976885;28;20038;-60
2021/10/06 01:18:35;;;;;;;11.38;2.95;;;;;;;;;;4960192;28;20041;-60
2021/10/06 01:21:11;;;;;;;10.02;2.88;;;;;;;;;;4964712;28;22086;-61
2021/10/06 01:23:37;;;;;;;9.75;2.70;;;;;;;;;;4963705;28;20058;-60
2021/10/06 01:26:02;;;;;;;11.35;3.65;;;;;;;;;;4959892;28;20035;-59
2021/10/06 01:28:28;;;;;;;9.40;3.50;;;;;;;;;;4964284;28;20039;-59
2021/10/06 01:30:56;;;;;;;10.98;3.03;;;;;;;;;;4945891;28;20868;-59
2021/10/06 01:33:26;;;;;;;13.68;2.88;;;;;;;;;;4961740;28;20050;-59
2021/10/06 01:35:54;;;;;;;8.82;2.78;;;;;;;;;;4962696;28;20422;-59
2021/10/06 01:38:20;;;;;;;10.85;2.60;;;;;;;;;;4949480;28;20054;-59
2021/10/06 01:40:45;;;;;;;4.97;2.30;;;;;;;;;;4960573;28;20070;-60
2021/10/06 01:43:11;;;;;;;4.70;2.25;;;;;;;;;;4963439;28;20149;-59
2021/10/06 01:45:39;;;;;;;8.38;2.17;;;;;;;;;;4944919;28;20026;-59
2021/10/06 01:48:06;;;;;;;7.95;2.30;;;;;;;;;;4944620;28;20121;-60
2021/10/06 01:50:32;;;;;;;6.50;2.50;;;;;;;;;;4962351;28;20046;-59
2021/10/06 01:52:57;;;;;;;8.50;2.50;;;;;;;;;;4959904;28;20034;-59
2021/10/06 01:55:24;;;;;;;6.95;2.30;;;;;;;;;;4960057;28;20049;-59
2021/10/06 01:57:56;;;;;;;12.50;2.72;;;;;;;;;;4976996;28;20064;-59
2021/10/06 02:00:26;;;;;;;8.32;2.35;;;;;;;;;;4977813;28;20033;-58
2021/10/06 02:02:57;;;;;;;4.93;2.25;;;;;;;;;;4975845;28;20030;-59
2021/10/06 02:05:28;;;;;;;8.27;2.50;;;;;;;;;;4975009;28;20031;-59
2021/10/06 02:07:56;;;;;;;10.60;2.60;;;;;;;;;;4965838;28;20048;-59
2021/10/06 02:10:21;;;;;;;14.98;3.08;;;;;;;;;;4977188;28;20063;-60
2021/10/06 02:12:51;;;;;;;6.03;2.35;;;;;;;;;;4962003;28;20174;-58
2021/10/06 02:15:27;;;;;;;11.65;2.58;;;;;;;;;;4965247;28;20199;-60
2021/10/06 02:17:52;;;;;;;8.68;2.65;;;;;;;;;;4978134;28;20504;-60
2021/10/06 02:20:18;;;;;;;17.50;3.50;;;;;;;;;;4960188;28;20038;-59
2021/10/06 02:22:48;;;;;;;8.40;2.75;;;;;;;;;;4960177;28;20042;-59
2021/10/06 02:25:16;;;;;;;6.32;3.10;;;;;;;;;;4974604;28;20572;-60
2021/10/06 02:27:44;;;;;;;5.53;2.50;;;;;;;;;;4960489;28;20022;-59
2021/10/06 02:30:15;;;;;;;8.25;3.70;;;;;;;;;;4961045;28;20030;-59
2021/10/06 02:32:41;;;;;;;6.63;3.30;;;;;;;;;;4975688;28;20027;-59
2021/10/06 02:35:07;;;;;;;7.38;2.40;;;;;;;;;;4958984;28;21057;-59
2021/10/06 02:37:33;;;;;;;9.77;3.10;;;;;;;;;;4959036;28;20030;-58
2021/10/06 02:39:58;;;;;;;11.88;3.60;;;;;;;;;;4963101;28;20935;-59
2021/10/06 02:42:24;;;;;;;15.27;3.85;;;;;;;;;;4975561;28;20041;-60
2021/10/06 02:44:49;;;;;;;18.23;3.70;;;;;;;;;;4978279;28;20034;-59
2021/10/06 02:47:14;;;;;;;8.13;3.28;;;;;;;;;;4945542;28;21067;-59
2021/10/06 02:49:40;;;;;;;11.98;4.53;;;;;;;;;;4961545;28;20049;-59
2021/10/06 02:52:07;;;;;;;7.38;3.45;;;;;;;;;;4976310;28;20085;-59
2021/10/06 02:54:35;;;;;;;9.88;3.10;;;;;;;;;;4960419;28;20600;-59
2021/10/06 02:57:01;;;;;;;7.47;3.90;;;;;;;;;;4942521;28;20136;-58
2021/10/06 02:59:29;;;;;;;9.90;4.00;;;;;;;;;;4962166;28;20612;-58
2021/10/06 03:01:55;;;;;;;11.38;3.70;;;;;;;;;;4959490;28;20030;-59
2021/10/06 03:04:20;;;;;;;6.32;3.45;;;;;;;;;;4960996;28;20049;-59
2021/10/06 03:06:48;;;;;;;8.82;4.53;;;;;;;;;;4976774;28;20030;-58
2021/10/06 03:09:14;;;;;;;12.65;4.35;;;;;;;;;;4976161;28;20109;-60
2021/10/06 03:11:39;;;;;;;10.35;4.40;;;;;;;;;;4959877;28;20539;-60
2021/10/06 03:14:07;;;;;;;6.70;3.78;;;;;;;;;;4963257;28;20069;-60
2021/10/06 03:16:32;;;;;;;8.25;4.07;;;;;;;;;;4959777;28;20092;-60
2021/10/06 03:19:00;;;;;;;7.55;3.65;;;;;;;;;;4958236;28;20030;-60
2021/10/06 03:21:26;;;;;;;11.30;4.40;;;;;;;;;;4962514;28;20635;-59
2021/10/06 03:23:51;;;;;;;11.93;4.85;;;;;;;;;;4960630;28;20027;-59
2021/10/06 03:26:20;;;;;;;17.55;4.97;;;;;;;;;;4974438;28;20116;-59
2021/10/06 03:28:48;;;;;;;13.18;4.78;;;;;;;;;;4969938;28;20038;-59
2021/10/06 03:31:16;;;;;;;10.25;4.90;;;;;;;;;;4962371;28;20161;-59
2021/10/06 03:33:42;;;;;;;9.25;4.95;;;;;;;;;;4981576;28;20553;-58
2021/10/06 03:36:07;;;;;;;8.95;4.75;;;;;;;;;;4974973;28;20035;-58
2021/10/06 03:38:35;;;;;;;9.07;4.55;;;;;;;;;;4963623;28;20168;-59
2021/10/06 03:41:00;;;;;;;10.23;4.97;;;;;;;;;;4958841;28;20049;-59
2021/10/06 03:43:26;;;;;;;14.98;5.22;;;;;;;;;;4960344;28;20049;-59
2021/10/06 03:45:51;;;;;;;13.82;5.15;;;;;;;;;;4976884;28;20042;-59
2021/10/06 03:48:19;;;;;;;10.43;5.05;;;;;;;;;;4975043;28;20077;-59
2021/10/06 03:50:48;;;;;;;9.90;4.90;;;;;;;;;;4960348;28;20041;-59
2021/10/06 03:53:13;;;;;;;9.75;5.28;;;;;;;;;;4958664;28;21070;-59
2021/10/06 03:55:44;;;;;;;15.35;5.68;;;;;;;;;;4957772;28;20034;-59
2021/10/06 03:58:09;;;;;;;14.45;5.68;;;;;;;;;;4959768;28;20038;-59
2021/10/06 04:00:35;;;;;;;15.50;5.53;;;;;;;;;;4965453;28;20818;-59
2021/10/06 04:03:03;;;;;;;15.65;5.35;;;;;;;;;;4976269;28;20069;-60
2021/10/06 04:05:28;;;;;;;14.32;5.80;;;;;;;;;;4961653;28;20026;-59
2021/10/06 04:07:55;;;;;;;18.48;6.30;;;;;;;;;;4964320;28;20023;-58
2021/10/06 04:10:21;;;;;;;15.05;5.75;;;;;;;;;;4962726;28;21769;-57
2021/10/06 04:12:51;;;;;;;12.73;5.95;;;;;;;;;;4945374;28;20038;-57
2021/10/06 04:15:19;;;;;;;12.55;5.60;;;;;;;;;;4961629;28;20030;-58
2021/10/06 04:17:45;;;;;;;21.02;5.38;;;;;;;;;;4980038;28;20109;-58
2021/10/06 04:20:12;;;;;;;12.77;6.03;;;;;;;;;;4961690;28;20042;-57
2021/10/06 04:22:40;;;;;;;12.80;6.28;;;;;;;;;;4961340;28;20031;-57
2021/10/06 04:25:06;;;;;;;16.75;5.82;;;;;;;;;;4975970;28;20033;-57
2021/10/06 04:27:32;;;;;;;14.30;6.25;;;;;;;;;;4975135;28;20906;-57
2021/10/06 04:30:00;;;;;;;18.48;6.15;;;;;;;;;;4961502;28;20113;-61
2021/10/06 04:32:26;;;;;;;13.02;6.38;;;;;;;;;;4960637;28;20054;-58
2021/10/06 04:34:51;;;;;;;13.32;5.60;;;;;;;;;;4960501;28;20482;-58
2021/10/06 04:37:17;;;;;;;11.30;5.53;;;;;;;;;;4977267;28;20042;-58
2021/10/06 04:39:43;;;;;;;12.15;4.82;;;;;;;;;;4976732;28;20046;-57
2021/10/06 04:42:11;;;;;;;8.32;4.60;;;;;;;;;;4964019;28;20018;-59
2021/10/06 04:44:41;;;;;;;21.02;4.35;;;;;;;;;;4965573;28;20045;-59
2021/10/06 04:47:09;;;;;;;8.90;3.90;;;;;;;;;;4976574;28;20154;-57
2021/10/06 04:49:34;;;;;;;11.63;4.38;;;;;;;;;;4946161;28;20033;-58
2021/10/06 04:52:03;;;;;;;11.07;4.28;;;;;;;;;;4975824;28;20038;-58
2021/10/06 04:54:28;;;;;;;19.73;6.85;;;;;;;;;;4966578;28;20110;-58
2021/10/06 04:56:58;;;;;;;11.07;4.20;;;;;;;;;;4960808;28;20097;-58
2021/10/06 04:59:28;;;;;;;11.13;3.72;;;;;;;;;;4982282;28;20861;-59
2021/10/06 05:01:56;;;;;;;20.75;3.47;;;;;;;;;;4979460;28;20046;-59
2021/10/06 05:04:22;;;;;;;14.80;3.50;;;;;;;;;;4964694;28;20084;-59
2021/10/06 05:06:47;;;;;;;12.65;3.28;;;;;;;;;;4981507;28;20419;-58
2021/10/06 05:09:18;;;;;;;17.15;3.35;;;;;;;;;;4979388;28;20702;-58
2021/10/06 05:11:48;;;;;;;4.68;3.42;;;;;;;;;;4962922;28;20516;-59
2021/10/06 05:14:16;;;;;;;5.57;3.25;;;;;;;;;;4964503;28;20092;-58
2021/10/06 05:16:44;;;;;;;8.00;3.35;;;;;;;;;;4964169;28;20145;-59
2021/10/06 05:19:12;;;;;;;4.43;3.00;;;;;;;;;;4978026;28;20034;-58
2021/10/06 05:21:42;;;;;;;5.82;2.42;;;;;;;;;;4964309;28;20031;-59
2021/10/06 05:24:10;;;;;;;12.27;3.17;;;;;;;;;;4966508;28;20038;-58
2021/10/06 05:26:36;;;;;;;5.70;2.47;;;;;;;;;;4965861;28;20066;-58
2021/10/06 05:29:02;;;;;;;7.75;2.90;;;;;;;;;;4957881;28;20042;-59
2021/10/06 05:31:30;;;;;;;9.85;3.22;;;;;;;;;;4976885;28;20068;-58
2021/10/06 05:34:00;;;;;;;4.10;2.58;;;;;;;;;;4974854;28;20042;-58
2021/10/06 05:36:28;;;;;;;6.65;2.50;;;;;;;;;;4957170;28;20062;-58
2021/10/06 05:38:58;;;;;;;5.93;2.70;;;;;;;;;;4941318;28;20089;-58
2021/10/06 05:41:26;;;;;;;13.15;3.22;;;;;;;;;;4965081;28;20058;-59
2021/10/06 05:43:52;;;;;;;7.30;3.50;;;;;;;;;;4979167;28;20501;-59
2021/10/06 05:46:17;;;;;;;4.95;2.60;;;;;;;;;;4977440;28;20026;-59
2021/10/06 05:48:48;;;;;;;3.92;2.95;;;;;;;;;;4964541;28;20022;-59
2021/10/06 05:51:15;;;;;;;6.30;3.53;;;;;;;;;;4963870;28;20034;-58
2021/10/06 05:53:43;;;;;;;4.85;2.92;;;;;;;;;;4960249;28;20033;-58
2021/10/06 05:56:08;;;;;;;8.70;3.85;;;;;;;;;;4979409;28;20383;-58
2021/10/06 05:58:36;;;;;;;6.25;3.97;;;;;;;;;;4965776;28;21043;-58
2021/10/06 06:01:02;;;;;;;7.30;3.92;;;;;;;;;;4978393;28;20105;-58
2021/10/06 06:03:30;;;;;;;14.77;4.63;;;;;;;;;;4980434;28;22332;-59
2021/10/06 06:06:01;;;;;;;14.48;4.50;;;;;;;;;;4964116;28;20794;-58
2021/10/06 06:08:26;;;;;;;10.27;4.75;;;;;;;;;;4978640;28;20042;-58
2021/10/06 06:10:51;;;;;;;7.82;4.57;;;;;;;;;;4959216;28;20674;-59
2021/10/06 06:13:17;;;;;;;14.48;5.53;;;;;;;;;;4970498;28;20081;-59
2021/10/06 06:15:42;;;;;;;9.45;4.40;;;;;;;;;;4963437;28;20060;-59
2021/10/06 06:18:08;;;;;;;6.47;4.25;;;;;;;;;;4959567;28;20043;-58
2021/10/06 06:20:37;;;;;;;6.68;3.92;;;;;;;;;;4961454;28;21013;-60
2021/10/06 06:23:05;;;;;;;8.00;3.83;;;;;;;;;;4978397;28;20058;-58
2021/10/06 06:25:30;;;;;;;8.57;3.88;;;;;;;;;;4948734;28;20045;-58
2021/10/06 06:27:55;;;;;;;8.90;3.65;;;;;;;;;;4959156;28;20030;-58
2021/10/06 06:30:23;;;;;;;5.75;3.28;;;;;;;;;;4980512;28;20030;-58
2021/10/06 06:32:49;;;;;;;10.23;3.60;;;;;;;;;;4965296;28;20043;-57
2021/10/06 06:35:16;;;;;;;10.43;3.40;;;;;;;;;;4960987;28;20076;-58
2021/10/06 06:37:42;;;;;;;6.75;3.50;;;;;;;;;;4980604;28;20042;-58
2021/10/06 06:40:08;;;;;;;13.35;3.35;;;;;;;;;;4962566;28;20031;-59
2021/10/06 06:42:36;;;;;;;4.25;3.25;;;;;;;;;;4944916;28;20350;-59
2021/10/06 06:45:05;;;;;;;7.25;3.15;;;;;;;;;;4973780;28;20102;-58
2021/10/06 06:47:30;;;;;;;4.93;2.88;;;;;;;;;;4961569;28;20865;-58
2021/10/06 06:49:58;;;;;;;7.28;2.92;;;;;;;;;;4965065;28;20043;-58
2021/10/06 06:52:26;;;;;;;5.10;2.80;;;;;;;;;;4977532;28;20059;-58
2021/10/06 06:54:59;;;;;;;4.03;2.45;;;;;;;;;;4978137;28;20038;-58
2021/10/06 06:57:26;;;;;;;3.42;2.22;;;;;;;;;;4962231;28;20049;-59
2021/10/06 06:59:52;;;;;;;3.60;2.22;;;;;;;;;;4975537;28;20532;-58
2021/10/06 07:02:20;;;;;;;4.80;2.38;;;;;;;;;;4964718;28;20026;-58
2021/10/06 07:04:48;;;;;;;2.92;2.33;;;;;;;;;;4960019;28;20117;-58
2021/10/06 07:07:18;;;;;;;11.18;2.42;;;;;;;;;;4960855;28;20532;-59
2021/10/06 07:09:48;;;;;;;2.40;1.65;;;;;;;;;;4963722;28;20050;-59
2021/10/06 07:12:17;;;;;;;5.55;2.05;;;;;;;;;;4975053;28;20038;-59
2021/10/06 07:14:42;;;;;;;5.65;2.10;;;;;;;;;;4963970;28;20537;-58
2021/10/06 07:17:11;;;;;;;4.93;2.25;;;;;;;;;;4975561;28;20031;-59
2021/10/06 07:19:41;;;;;;;3.35;2.08;;;;;;;;;;4978282;28;20043;-59
2021/10/06 07:22:09;;;;;;;4.13;1.95;;;;;;;;;;4962103;28;20035;-57
2021/10/06 07:24:37;;;;;;;7.38;2.13;;;;;;;;;;4949908;28;20971;-58
2021/10/06 07:27:05;;;;;;;7.75;1.90;;;;;;;;;;4964642;28;20062;-58
2021/10/06 07:29:33;;;;;;;5.28;2.42;;;;;;;;;;4976499;28;20501;-58
2021/10/06 07:31:59;;;;;;;4.72;2.00;;;;;;;;;;4962384;28;20060;-59
2021/10/06 07:34:24;;;;;;;5.00;2.08;;;;;;;;;;4960684;28;20482;-58
2021/10/06 07:36:53;;;;;;;2.08;1.80;;;;;;;;;;4960707;28;20069;-58
2021/10/06 07:39:19;;;;;;;2.63;1.50;;;;;;;;;;4979170;28;20134;-59
2021/10/06 07:41:49;;;;;;;3.53;1.75;;;;;;;;;;4977092;28;20026;-59
2021/10/06 07:44:15;;;;;;;9.05;1.70;;;;;;;;;;4974786;28;20039;-58
2021/10/06 07:46:42;;;;;;;4.75;1.50;;;;;;;;;;4962532;28;20125;-57
2021/10/06 07:49:11;;;;;;;4.68;1.65;;;;;;;;;;4975252;28;20093;-58
2021/10/06 07:51:37;;;;;;;1.80;1.50;;;;;;;;;;4975130;28;20034;-58
2021/10/06 07:54:08;;;;;;;3.00;1.65;;;;;;;;;;4964353;28;20041;-59
2021/10/06 07:56:34;;;;;;;2.03;1.60;;;;;;;;;;4974251;28;20117;-60
2021/10/06 07:59:00;;;;;;;2.78;1.45;;;;;;;;;;4976157;28;20030;-59
2021/10/06 08:01:26;;;;;;;3.83;1.40;;;;;;;;;;4973929;28;20054;-59
2021/10/06 08:03:54;;;;;;;4.70;1.92;;;;;;;;;;4959830;28;20046;-59
2021/10/06 08:06:19;;;;;;;2.47;1.40;;;;;;;;;;4992962;28;20145;-59
2021/10/06 08:08:48;;;;;;;2.85;1.75;;;;;;;;;;4958640;28;20038;-59
2021/10/06 08:11:14;;;;;;;5.82;1.00;;;;;;;;;;4976903;28;20908;-59
2021/10/06 08:13:42;;;;;;;4.38;1.92;;;;;;;;;;4961564;28;20049;-59
2021/10/06 08:16:08;;;;;;;4.90;1.60;;;;;;;;;;4959907;28;20106;-58
2021/10/06 08:18:36;;;;;;;4.65;1.67;;;;;;;;;;4958916;28;20747;-59
2021/10/06 08:21:01;;;;;;;4.10;1.67;;;;;;;;;;4974352;28;20148;-59
2021/10/06 08:23:30;;;;;;;1.80;1.42;;;;;;;;;;4977575;28;20474;-59
2021/10/06 08:25:56;;;;;;;2.83;1.25;;;;;;;;;;4962011;28;20042;-59
2021/10/06 08:28:25;;;;;;;3.60;1.50;;;;;;;;;;4961911;28;20018;-59
2021/10/06 08:30:50;;;;;;;1.45;1.00;;;;;;;;;;4980756;28;20042;-58
2021/10/06 08:33:18;;;;;;;3.38;1.55;;;;;;;;;;4979509;28;20037;-58
2021/10/06 08:35:46;;;;;;;1.38;1.27;;;;;;;;;;4962494;28;20038;-59
2021/10/06 08:38:14;;;;;;;1.63;1.00;;;;;;;;;;4961652;28;20536;-59
2021/10/06 08:40:40;;;;;;;1.52;1.02;;;;;;;;;;4947280;28;20053;-59
2021/10/06 08:43:06;;;;;;;2.53;1.23;;;;;;;;;;4978434;28;20023;-58
2021/10/06 08:45:36;;;;;;;1.15;1.00;;;;;;;;;;4966238;28;20062;-58
2021/10/06 08:48:05;;;;;;;2.00;1.13;;;;;;;;;;4983028;28;20050;-59
2021/10/06 08:50:31;;;;;;;2.05;0.93;;;;;;;;;;4979680;28;20492;-59
2021/10/06 08:52:56;;;;;;;1.08;0.98;;;;;;;;;;4964705;28;20022;-58
2021/10/06 08:55:28;;;;;;;1.75;1.48;;;;;;;;;;4981281;28;20125;-58
2021/10/06 08:57:59;;;;;;;3.72;1.30;;;;;;;;;;4964592;28;20069;-59
2021/10/06 09:00:24;;;;;;;0.95;0.82;;;;;;;;;;4964188;28;20405;-59
2021/10/06 09:02:50;;;;;;;1.02;1.02;;;;;;;;;;4963797;28;20062;-58
2021/10/06 09:05:19;;;;;;;2.00;1.08;;;;;;;;;;4980188;28;20048;-58
2021/10/06 09:08:04;;;;;;;2.00;0.80;;;;;;;;;;4965759;28;20125;-57
2021/10/06 09:10:33;;;;;;;1.75;0.90;;;;;;;;;;4980360;28;22067;-59
2021/10/06 09:13:03;;;;;;;1.42;0.80;;;;;;;;;;4965460;28;20061;-59
2021/10/06 09:15:39;;;;;;;2.22;1.10;;;;;;;;;;4965124;28;20145;-59
2021/10/06 09:18:10;;;;;;;2.17;1.02;;;;;;;;;;4981691;28;20042;-58
2021/10/06 09:20:39;;;;;;;3.13;1.20;;;;;;;;;;4947701;28;20040;-59
2021/10/06 09:23:07;;;;;;;1.60;0.85;;;;;;;;;;4965392;28;22030;-59
2021/10/06 09:26:08;;;;;;;3.35;1.48;;;;;;;;;;4978589;28;20054;-59
2021/10/06 09:28:39;;;;;;;2.40;0.93;;;;;;;;;;4954376;28;20061;-59
2021/10/06 09:31:14;;;;;;;1.15;0.80;;;;;;;;;;4962790;28;20041;-59
2021/10/06 09:33:43;;;;;;;2.08;0.90;;;;;;;;;;4967718;28;20029;-59
2021/10/06 09:36:09;;;;;;;3.08;1.00;;;;;;;;;;4978886;28;20635;-59
2021/10/06 09:38:59;;;;;;;1.20;0.90;;;;;;;;;;4964506;28;20043;-59
2021/10/06 09:41:41;;;;;;;3.03;1.10;;;;;;;;;;4964904;28;20031;-60
2021/10/06 09:44:20;;;;;;;0.80;0.77;;;;;;;;;;4976927;28;20042;-59
2021/10/06 09:47:01;;;;;;;1.65;1.50;;;;;;;;;;4981296;28;20027;-59
2021/10/06 09:49:30;;;;;;;2.70;1.08;;;;;;;;;;4978624;28;20039;-59
2021/10/06 09:52:16;;;;;;;2.63;1.10;;;;;;;;;;4961165;28;20513;-59
2021/10/06 09:54:41;;;;;;;;;;;;;;;;;;4965293;28;20041;-59
2021/10/06 09:57:06;;;;;;;1.20;1.10;;;;;;;;;;4963366;28;19918;-58
2021/10/06 09:59:36;;;;;;;3.00;1.40;;;;;;;;;;4966466;28;20080;-59
2021/10/06 10:02:03;;;;;;;2.50;0.95;;;;;;;;;;4947461;28;20058;-61
2021/10/06 10:04:31;;;;;;;1.20;1.05;;;;;;;;;;4963508;28;20026;-59
2021/10/06 10:06:59;;;;;;;2.33;1.00;;;;;;;;;;4979490;28;20030;-59
2021/10/06 10:09:29;;;;;;;1.75;1.05;;;;;;;;;;4979886;28;20042;-60
2021/10/06 10:11:57;;;;;;;1.73;1.20;;;;;;;;;;4965448;28;20034;-60
2021/10/06 10:14:25;;;;;;;2.60;1.20;;;;;;;;;;4978797;28;20026;-59
2021/10/06 10:16:50;;;;;;;1.13;0.80;;;;;;;;;;4962564;28;20048;-59
2021/10/06 10:19:15;;;;;;;2.30;0.80;;;;;;;;;;4979086;28;20061;-59
2021/10/06 10:21:45;;;;;;;0.77;0.75;;;;;;;;;;4977039;28;20026;-58
2021/10/06 10:24:29;;;;;;;1.40;0.85;;;;;;;;;;4978104;28;20533;-58
2021/10/06 10:27:08;;;;;;;1.48;0.80;;;;;;;;;;4964563;28;20065;-58
2021/10/06 10:29:43;;;;;;;4.72;1.00;;;;;;;;;;4980051;28;20038;-59
2021/10/06 10:32:14;;;;;;;1.30;0.77;;;;;;;;;;4978859;28;20042;-59
2021/10/06 10:35:01;;;;;;;1.55;1.00;;;;;;;;;;4960864;28;20034;-59
2021/10/06 10:37:48;;;;;;;1.50;0.80;;;;;;;;;;4978641;28;20034;-59
2021/10/06 10:40:34;;;;;;;1.02;0.80;;;;;;;;;;4965414;28;20552;-59
2021/10/06 10:43:02;;;;;;;1.80;0.80;;;;;;;;;;4961049;28;20038;-59
2021/10/06 10:45:39;;;;;;;3.22;0.80;;;;;;;;;;4961667;28;20053;-59
2021/10/06 10:48:06;;;;;;;1.90;0.88;;;;;;;;;;4977650;28;20489;-59
2021/10/06 10:50:40;;;;;;;2.83;1.20;;;;;;;;;;4942908;28;20609;-59
2021/10/06 10:53:07;;;;;;;2.00;0.60;;;;;;;;;;4977539;28;20434;-60
2021/10/06 10:55:45;;;;;;;2.58;1.33;;;;;;;;;;4961719;28;20057;-60
2021/10/06 10:58:31;;;;;;;1.65;0.70;;;;;;;;;;4960780;28;20592;-60
2021/10/06 11:01:01;;;;;;;1.42;0.82;;;;;;;;;;4962686;28;20089;-59
2021/10/06 11:03:29;;;;;;;0.52;0.52;;;;;;;;;;4960095;28;20478;-59
2021/10/06 11:05:57;;;;;;;3.00;0.50;;;;;;;;;;4976251;28;20040;-59
2021/10/06 11:08:34;;;;;;;2.03;0.75;;;;;;;;;;4977434;28;20125;-59
2021/10/06 11:11:09;;;;;;;0.70;0.43;;;;;;;;;;4963060;28;20078;-60
2021/10/06 11:13:41;;;;;;;2.05;0.98;;;;;;;;;;4976756;28;20045;-59
2021/10/06 11:16:07;;;;;;;0.38;0.22;;;;;;;;;;4978114;28;20022;-60
2021/10/06 11:18:38;;;;;;;1.27;0.40;;;;;;;;;;4962553;28;22049;-60
2021/10/06 11:21:08;;;;;;;1.70;0.85;;;;;;;;;;4975778;28;20022;-60
2021/10/06 11:23:36;;;;;;;2.38;0.50;;;;;;;;;;4977200;28;21491;-60
2021/10/06 11:26:06;;;;;;;1.02;0.40;;;;;;;;;;4961452;28;20176;-60
2021/10/06 11:28:36;;;;;;;0.98;0.40;;;;;;;;;;4959985;28;20553;-60
2021/10/06 11:31:04;;;;;;;1.55;0.43;;;;;;;;;;4977041;28;20170;-59
2021/10/06 11:33:30;;;;;;;1.45;0.38;;;;;;;;;;4964023;28;20100;-58
2021/10/06 11:36:17;;;;;;;0.65;0.30;;;;;;;;;;4947575;28;20585;-60
2021/10/06 11:38:51;;;;;;;3.47;0.50;;;;;;;;;;4978812;28;20034;-59
2021/10/06 11:41:17;;;;;;;0.83;0.40;;;;;;;;;;4961731;28;20034;-59
2021/10/06 11:43:45;;;;;;;2.72;0.52;;;;;;;;;;4964664;28;21199;-60
2021/10/06 11:46:12;;;;;;;0.68;0.50;;;;;;;;;;4961307;28;20090;-61
2021/10/06 11:48:37;;;;;;;1.75;0.50;;;;;;;;;;4978047;28;20717;-60
2021/10/06 11:51:03;;;;;;;3.38;0.63;;;;;;;;;;4963186;28;20129;-59
2021/10/06 11:53:44;;;;;;;1.30;0.55;;;;;;;;;;4962128;28;20772;-60
2021/10/06 11:56:10;;;;;;;1.17;0.70;;;;;;;;;;4964920;28;20094;-60
2021/10/06 11:58:36;;;;;;;4.97;0.82;;;;;;;;;;4976753;28;20108;-60
2021/10/06 12:01:03;;;;;;;1.60;0.60;;;;;;;;;;4974614;28;21016;-58
2021/10/06 12:03:34;;;;;;;0.95;0.60;;;;;;;;;;4991378;28;20030;-59
2021/10/06 12:06:02;;;;;;;2.60;0.80;;;;;;;;;;4974864;28;20018;-60
2021/10/06 12:08:27;;;;;;;4.38;0.75;;;;;;;;;;4963711;28;20154;-60
2021/10/06 12:10:56;;;;;;;0.90;0.57;;;;;;;;;;4979848;28;20053;-60
2021/10/06 12:13:35;;;;;;;0.82;0.50;;;;;;;;;;4970584;28;20029;-58
2021/10/06 12:16:01;;;;;;;2.25;0.82;;;;;;;;;;4951238;28;20173;-59
2021/10/06 12:18:28;;;;;;;1.88;0.50;;;;;;;;;;4980695;28;20031;-60
2021/10/06 12:20:55;;;;;;;1.73;0.60;;;;;;;;;;4964800;28;20674;-59
2021/10/06 12:23:24;;;;;;;0.85;0.63;;;;;;;;;;4965462;28;20070;-59
2021/10/06 12:25:54;;;;;;;1.50;0.63;;;;;;;;;;4964809;28;20038;-60
2021/10/06 12:28:21;;;;;;;0.30;0.30;;;;;;;;;;4965646;28;20029;-60
2021/10/06 12:30:53;;;;;;;0.43;0.40;;;;;;;;;;4968354;28;20038;-59
2021/10/06 12:33:24;;;;;;;3.10;0.50;;;;;;;;;;4981039;28;20041;-59
2021/10/06 12:35:52;;;;;;;1.55;0.38;;;;;;;;;;4947636;28;20035;-60
2021/10/06 12:38:18;;;;;;;0.30;0.15;;;;;;;;;;4967676;28;20038;-60
2021/10/06 12:40:53;;;;;;;1.40;0.40;;;;;;;;;;4979718;28;20042;-61
2021/10/06 12:43:20;;;;;;;2.00;0.60;;;;;;;;;;4965630;28;20042;-60
2021/10/06 12:46:00;;;;;;;1.75;0.57;;;;;;;;;;4962387;28;20055;-60
2021/10/06 12:48:35;;;;;;;1.40;0.50;;;;;;;;;;4965578;28;20034;-60
2021/10/06 12:51:01;;;;;;;2.10;0.30;;;;;;;;;;4979387;28;20039;-62
2021/10/06 12:53:27;;;;;;;0.30;0.30;;;;;;;;;;4963894;28;20042;-59
2021/10/06 12:55:55;;;;;;;1.20;0.45;;;;;;;;;;4967215;28;20137;-60
2021/10/06 12:58:20;;;;;;;0.45;0.28;;;;;;;;;;4964253;28;20029;-60
2021/10/06 13:00:47;;;;;;;0.50;0.38;;;;;;;;;;4965361;28;20774;-60
2021/10/06 13:03:14;;;;;;;1.20;0.30;;;;;;;;;;4978617;28;20057;-60
2021/10/06 13:05:40;;;;;;;1.80;0.25;;;;;;;;;;4977708;28;20516;-60
2021/10/06 13:08:18;;;;;;;1.27;0.28;;;;;;;;;;4966859;28;20030;-59
2021/10/06 13:10:46;;;;;;;0.80;0.50;;;;;;;;;;4975852;28;20046;-59
2021/10/06 13:13:14;;;;;;;1.35;0.50;;;;;;;;;;4963897;28;20030;-61
2021/10/06 13:15:39;;;;;;;1.83;0.50;;;;;;;;;;4975323;28;20097;-61
2021/10/06 13:18:05;;;;;;;1.65;0.63;;;;;;;;;;4947871;28;20027;-61
2021/10/06 13:20:30;;;;;;;4.28;0.40;;;;;;;;;;4978647;28;20053;-59
2021/10/06 13:22:56;;;;;;;2.47;0.30;;;;;;;;;;4959662;28;20034;-60
2021/10/06 13:25:24;;;;;;;1.63;0.28;;;;;;;;;;4963167;28;20065;-59
2021/10/06 13:27:49;;;;;;;0.47;0.20;;;;;;;;;;4964153;28;20116;-59
2021/10/06 13:30:15;;;;;;;1.30;0.40;;;;;;;;;;4949290;28;20050;-59
2021/10/06 13:32:41;;;;;;;0.95;0.20;;;;;;;;;;4948510;28;20030;-59
2021/10/06 13:35:08;;;;;;;0.82;0.38;;;;;;;;;;4976456;28;20026;-60
2021/10/06 13:37:34;;;;;;;1.02;0.40;;;;;;;;;;4944992;28;20093;-60
2021/10/06 13:40:05;;;;;;;1.00;0.20;;;;;;;;;;4947549;28;20062;-60
2021/10/06 13:42:35;;;;;;;1.50;0.47;;;;;;;;;;4962787;28;20034;-60
2021/10/06 13:45:01;;;;;;;0.25;0.22;;;;;;;;;;4964485;28;20213;-60
2021/10/06 13:47:27;;;;;;;0.85;0.30;;;;;;;;;;4979341;28;20042;-60
2021/10/06 13:49:54;;;;;;;0.77;0.50;;;;;;;;;;4980015;28;20039;-60
2021/10/06 13:52:23;;;;;;;1.05;0.35;;;;;;;;;;4978426;28;20027;-60
2021/10/06 13:54:48;;;;;;;1.13;0.20;;;;;;;;;;4946909;28;20105;-60
2021/10/06 13:57:14;;;;;;;0.98;0.30;;;;;;;;;;4947331;28;20057;-59
2021/10/06 13:59:39;;;;;;;1.95;0.40;;;;;;;;;;4958991;28;20501;-60
2021/10/06 14:02:05;;;;;;;1.45;0.30;;;;;;;;;;4979577;28;20101;-60
2021/10/06 14:04:30;;;;;;;1.25;0.30;;;;;;;;;;4962378;28;20504;-60
2021/10/06 14:06:55;;;;;;;0.63;0.30;;;;;;;;;;4975235;28;20035;-61
2021/10/06 14:09:22;;;;;;;0.13;0.10;;;;;;;;;;4961874;28;20049;-60
2021/10/06 14:11:52;;;;;;;1.30;0.17;;;;;;;;;;4975533;28;20164;-59
2021/10/06 14:14:20;;;;;;;3.42;0.30;;;;;;;;;;4979401;28;20026;-58
2021/10/06 14:16:45;;;;;;;2.90;1.75;;;;;;;;;;4962834;28;20500;-60
2021/10/06 14:19:11;;;;;;;0.40;0.10;;;;;;;;;;4963334;28;20046;-60
2021/10/06 14:21:39;;;;;;;1.45;0.25;;;;;;;;;;4963702;28;21962;-61
2021/10/06 14:24:05;;;;;;;0.32;0.20;;;;;;;;;;4960997;28;21322;-60
2021/10/06 14:26:30;;;;;;;2.17;0.30;;;;;;;;;;4962589;28;20034;-60
2021/10/06 14:28:59;;;;;;;0.85;0.13;;;;;;;;;;4978051;28;20100;-60
2021/10/06 14:31:27;;;;;;;0.80;0.20;;;;;;;;;;4959057;28;20033;-61
2021/10/06 14:33:55;;;;;;;0.38;0.22;;;;;;;;;;4962852;28;20809;-60
2021/10/06 14:36:21;;;;;;;3.00;0.65;;;;;;;;;;4973246;28;20022;-60
2021/10/06 14:38:47;;;;;;;1.65;0.52;;;;;;;;;;4977697;28;20498;-60
2021/10/06 14:41:12;;;;;;;0.77;0.45;;;;;;;;;;4960189;28;20026;-61
2021/10/06 14:43:38;;;;;;;3.30;0.80;;;;;;;;;;4962501;28;20126;-59
2021/10/06 14:46:04;;;;;;;0.65;0.50;;;;;;;;;;4941295;28;20030;-59
2021/10/06 14:48:30;;;;;;;3.80;0.50;;;;;;;;;;4978106;28;20030;-59